createdAt,value
2022-12-18T00:02:46.702Z,1009.64
2022-12-18T00:08:30.142Z,1009.58
2022-12-18T00:14:13.889Z,1009.66
2022-12-18T00:19:56.845Z,1009.69
2022-12-18T00:25:39.740Z,1009.51
2022-12-18T00:31:24.292Z,1009.61
2022-12-18T00:37:08.668Z,1009.63
2022-12-18T00:42:51.420Z,1009.56
2022-12-18T00:48:34.663Z,1009.32
2022-12-18T00:54:18.272Z,1009.38
2022-12-18T01:00:01.075Z,1009.34
2022-12-18T01:05:44.517Z,1009.41
2022-12-18T01:11:27.405Z,1009.34
2022-12-18T01:17:10.134Z,1009.18
2022-12-18T01:22:56.613Z,1009.27
2022-12-18T01:28:40.651Z,1009.13
2022-12-18T01:34:24.165Z,1009.14
2022-12-18T01:40:09.026Z,1009.16
2022-12-18T01:45:52.019Z,1008.99
2022-12-18T01:51:35.089Z,1008.91
2022-12-18T01:57:18.289Z,1009
2022-12-18T02:03:01.221Z,1009.09
2022-12-18T02:08:48.665Z,1009.12
2022-12-18T02:14:36.693Z,1009.07
2022-12-18T02:20:23.848Z,1009.15
2022-12-18T02:26:13.646Z,1009.11
2022-12-18T02:31:58.341Z,1009.14
2022-12-18T02:37:43.589Z,1009.23
2022-12-18T02:43:26.240Z,1009.24
2022-12-18T02:49:19.546Z,1009.22
2022-12-18T02:55:08.024Z,1009.12
2022-12-18T03:00:55.236Z,1008.71
2022-12-18T03:06:41.847Z,1008.72
2022-12-18T03:12:30.173Z,1008.51
2022-12-18T03:18:15.093Z,1008.67
2022-12-18T03:23:58.488Z,1008.56
2022-12-18T03:29:44.203Z,1008.47
2022-12-18T03:35:30.423Z,1008.55
2022-12-18T03:41:16.376Z,1008.39
2022-12-18T03:47:04.576Z,1008.37
2022-12-18T03:52:51.349Z,1008.33
2022-12-18T03:58:36.844Z,1008.29
2022-12-18T04:04:20.580Z,1008.39
2022-12-18T04:10:05.194Z,1008.46
2022-12-18T04:15:48.184Z,1008.47
2022-12-18T04:21:31.341Z,1008.48
2022-12-18T04:27:14.320Z,1008.62
2022-12-18T04:32:57.257Z,1008.68
2022-12-18T04:38:40.049Z,1008.69
2022-12-18T04:44:23.085Z,1008.69
2022-12-18T04:50:06.910Z,1008.63
2022-12-18T04:55:49.728Z,1008.56
2022-12-18T05:01:36.081Z,1008.55
2022-12-18T05:07:19.109Z,1008.59
2022-12-18T05:13:02.358Z,1008.52
2022-12-18T05:18:45.461Z,1008.28
2022-12-18T05:24:28.558Z,1008.36
2022-12-18T05:30:13.644Z,1008.49
2022-12-18T05:35:57.372Z,1008.58
2022-12-18T05:41:40.406Z,1008.55
2022-12-18T05:47:25.424Z,1008.54
2022-12-18T05:53:08.512Z,1008.63
2022-12-18T05:58:53.233Z,1008.69
2022-12-18T06:04:35.933Z,1008.64
2022-12-18T06:10:18.788Z,1008.43
2022-12-18T06:16:03.138Z,1008.32
2022-12-18T06:21:46.037Z,1008.33
2022-12-18T06:27:28.904Z,1008.46
2022-12-18T06:33:11.814Z,1008.39
2022-12-18T06:38:54.618Z,1008.4
2022-12-18T06:44:37.335Z,1008.35
2022-12-18T06:50:20.200Z,1008.19
2022-12-18T06:56:11.274Z,1007.99
2022-12-18T07:01:54.679Z,1007.95
2022-12-18T07:07:38.756Z,1007.94
2022-12-18T07:13:21.538Z,1007.96
2022-12-18T07:19:04.550Z,1007.9
2022-12-18T07:24:47.374Z,1007.77
2022-12-18T07:30:30.137Z,1007.61
2022-12-18T07:36:13.610Z,1007.53
2022-12-18T07:41:56.488Z,1007.52
2022-12-18T07:47:39.745Z,1007.39
2022-12-18T07:53:22.528Z,1007.38
2022-12-18T07:59:05.422Z,1007.43
2022-12-18T08:04:48.338Z,1007.36
2022-12-18T08:10:31.094Z,1007.43
2022-12-18T08:16:14.010Z,1007.38
2022-12-18T08:21:57.772Z,1007.42
2022-12-18T08:27:41.179Z,1007.45
2022-12-18T08:33:24.022Z,1007.43
2022-12-18T08:39:06.983Z,1007.44
2022-12-18T08:44:50.268Z,1007.3
2022-12-18T08:50:33.005Z,1007.25
2022-12-18T08:56:16.329Z,1007.24
2022-12-18T09:01:59.463Z,1007.35
2022-12-18T09:07:42.928Z,1007.15
2022-12-18T09:13:26.288Z,1007.17
2022-12-18T09:19:09.165Z,1007.12
2022-12-18T09:24:52.108Z,1007.01
2022-12-18T09:30:35.730Z,1007.04
2022-12-18T09:36:22.703Z,1006.98
2022-12-18T09:42:06.754Z,1006.86
2022-12-18T09:47:50.994Z,1006.98
2022-12-18T09:53:36.224Z,1007.07
2022-12-18T09:59:23.463Z,1006.93
2022-12-18T10:05:13.734Z,1006.87
2022-12-18T10:10:59.408Z,1006.83
2022-12-18T10:16:49.385Z,1006.89
2022-12-18T10:22:41.073Z,1006.67
2022-12-18T10:28:25.933Z,1006.55
2022-12-18T10:34:10.531Z,1006.44
2022-12-18T10:39:59.059Z,1006.38
2022-12-18T10:45:41.970Z,1006.39
2022-12-18T10:51:26.430Z,1006.36
2022-12-18T10:57:24.815Z,1006.37
2022-12-18T11:03:13.689Z,1006.29
2022-12-18T11:09:09.489Z,1006.27
2022-12-18T11:14:57.278Z,1006.2
2022-12-18T11:20:40.685Z,1006.22
2022-12-18T11:26:28.398Z,1006.17
2022-12-18T11:32:29.545Z,1006.22
2022-12-18T11:38:13.775Z,1006.28
2022-12-18T11:43:58.281Z,1006.37
2022-12-18T11:49:42.686Z,1006.42
2022-12-18T11:55:30.283Z,1006.43
2022-12-18T12:01:17.818Z,1006.29
2022-12-18T12:07:06.096Z,1006.04
2022-12-18T12:12:55.509Z,1006.16
2022-12-18T12:18:44.123Z,1006.12
2022-12-18T12:24:33.288Z,1006.08
2022-12-18T12:30:22.202Z,1005.99
2022-12-18T12:36:07.293Z,1005.94
2022-12-18T12:41:50.493Z,1005.91
2022-12-18T12:47:35.285Z,1005.86
2022-12-18T12:53:24.024Z,1005.7
2022-12-18T12:59:12.310Z,1005.52
2022-12-18T13:04:59.717Z,1005.56
2022-12-18T13:10:44.656Z,1005.4
2022-12-18T13:16:28.818Z,1005.42
2022-12-18T13:22:17.848Z,1005.55
2022-12-18T13:28:08.893Z,1005.57
2022-12-18T13:39:55.262Z,1005.42
2022-12-18T13:45:50.693Z,1005.4
2022-12-18T13:51:34.782Z,1005.46
2022-12-18T13:57:30.801Z,1005.43
2022-12-18T14:03:23.685Z,1005.36
2022-12-18T14:09:10.502Z,1005.37
2022-12-18T14:15:00.150Z,1005.44
2022-12-18T14:20:54.471Z,1005.45
2022-12-18T14:26:37.549Z,1005.43
2022-12-18T14:32:21.106Z,1005.45
2022-12-18T14:38:19.695Z,1005.45
2022-12-18T14:44:07.267Z,1005.42
2022-12-18T14:49:50.505Z,1005.27
2022-12-18T14:55:33.713Z,1005.21
2022-12-18T15:01:23.823Z,1005.2
2022-12-18T15:07:10.049Z,1005.22
2022-12-18T15:12:58.111Z,1005.16
2022-12-18T15:18:43.843Z,1005.14
2022-12-18T15:24:29.015Z,1005.1
2022-12-18T15:30:26.473Z,1004.97
2022-12-18T15:36:12.282Z,1004.95
2022-12-18T15:41:56.845Z,1004.88
2022-12-18T15:47:40.716Z,1004.81
2022-12-18T15:53:24.743Z,1004.83
2022-12-18T15:59:10.601Z,1004.86
2022-12-18T16:04:54.951Z,1004.89
2022-12-18T16:10:37.764Z,1004.86
2022-12-18T16:16:21.290Z,1004.81
2022-12-18T16:22:15.503Z,1004.75
2022-12-18T16:27:59.584Z,1004.67
2022-12-18T16:33:44.644Z,1004.59
2022-12-18T16:39:28.093Z,1004.6
2022-12-18T16:45:12.496Z,1004.47
2022-12-18T16:51:00.569Z,1004.49
2022-12-18T16:56:43.757Z,1004.31
2022-12-18T17:02:29.076Z,1004.26
2022-12-18T17:08:12.377Z,1004.26
2022-12-18T17:13:55.325Z,1004.18
2022-12-18T17:19:41.178Z,1004.27
2022-12-18T17:25:25.276Z,1004.2
2022-12-18T17:31:17.661Z,1004.32
2022-12-18T17:37:00.675Z,1004.34
2022-12-18T17:42:44.209Z,1004.35
2022-12-18T17:48:27.501Z,1004.44
2022-12-18T17:54:10.903Z,1004.44
2022-12-18T17:59:54.181Z,1004.37
2022-12-18T18:05:38.719Z,1004.3
2022-12-18T18:11:23.501Z,1004.31
2022-12-18T18:17:06.539Z,1004.25
2022-12-18T18:22:49.371Z,1004.17
2022-12-18T18:28:32.620Z,1004.13
2022-12-18T18:34:17.809Z,1004.29
2022-12-18T18:40:03.234Z,1004.46
2022-12-18T18:45:48.257Z,1004.43
2022-12-18T18:51:35.954Z,1004.43
2022-12-18T18:57:24.327Z,1004.42
2022-12-18T19:03:12.753Z,1004.43
2022-12-18T19:08:56.535Z,1004.4
2022-12-18T19:14:39.809Z,1004.36
2022-12-18T19:20:22.708Z,1004.34
2022-12-18T19:26:28.176Z,1004.3
2022-12-18T19:32:09.800Z,1004.33
2022-12-18T19:37:54.220Z,1004.31
2022-12-18T19:43:37.922Z,1004.3
2022-12-18T19:49:21.876Z,1004.46
2022-12-18T19:55:07.198Z,1004.49
2022-12-18T20:00:50.647Z,1004.46
2022-12-18T20:06:34.837Z,1004.27
2022-12-18T20:12:17.815Z,1004.17
2022-12-18T20:18:01.226Z,1004.14
2022-12-18T20:23:45.450Z,1004.15
2022-12-18T20:29:28.592Z,1004.06
2022-12-18T20:35:11.900Z,1004.01
2022-12-18T20:40:55.265Z,1003.92
2022-12-18T20:46:38.384Z,1003.8
2022-12-18T20:52:22.984Z,1003.78
2022-12-18T20:58:06.867Z,1003.67
2022-12-18T21:03:51.330Z,1003.45
2022-12-18T21:09:38.735Z,1003.3
2022-12-18T21:15:28.675Z,1003.28
2022-12-18T21:21:12.416Z,1003.27
2022-12-18T21:26:56.056Z,1003.29
2022-12-18T21:32:41.773Z,1003.33
2022-12-18T21:38:24.528Z,1003.26
2022-12-18T21:44:07.761Z,1003.18
2022-12-18T21:49:50.999Z,1003.04
2022-12-18T21:55:34.044Z,1002.99
2022-12-18T22:01:17.533Z,1002.99
2022-12-18T22:07:00.619Z,1003.02
2022-12-18T22:12:46.060Z,1002.99
2022-12-18T22:18:35.902Z,1002.9
2022-12-18T22:24:20.463Z,1002.82
2022-12-18T22:30:04.906Z,1002.92
2022-12-18T22:35:48.724Z,1002.81
2022-12-18T22:41:33.637Z,1002.61
2022-12-18T22:47:16.628Z,1002.6
2022-12-18T22:52:59.694Z,1002.65
2022-12-18T22:58:42.829Z,1002.51
2022-12-18T23:04:27.028Z,1002.64
2022-12-18T23:10:17.481Z,1002.51
2022-12-18T23:16:00.331Z,1002.37
2022-12-18T23:21:43.096Z,1002.27
2022-12-18T23:27:25.900Z,1002.15
2022-12-18T23:33:08.702Z,1002.12
2022-12-18T23:38:53.253Z,1001.96
2022-12-18T23:44:35.876Z,1001.81
2022-12-18T23:50:19.290Z,1001.78
2022-12-18T23:56:12.386Z,1001.73
